createdAt,value
2018-07-23T00:00:39.953Z,24.60
2018-07-23T00:03:43.044Z,25.43
2018-07-23T00:06:46.109Z,25.33
2018-07-23T00:09:49.176Z,29.20
2018-07-23T00:12:52.048Z,28.70
2018-07-23T00:15:55.125Z,31.13
2018-07-23T00:18:58.205Z,33.23
2018-07-23T00:22:01.281Z,36.43
2018-07-23T00:25:04.598Z,31.97
2018-07-23T00:28:07.680Z,34.63
2018-07-23T00:31:10.745Z,33.73
2018-07-23T00:34:13.822Z,34.03
2018-07-23T00:37:16.913Z,35.37
2018-07-23T00:40:19.751Z,35.70
2018-07-23T00:43:22.817Z,34.63
2018-07-23T00:46:25.913Z,34.53
2018-07-23T00:49:29.009Z,34.53
2018-07-23T00:52:32.111Z,32.60
2018-07-23T00:55:35.209Z,32.33
2018-07-23T00:58:38.304Z,31.60
2018-07-23T01:01:41.392Z,29.93
2018-07-23T01:04:44.485Z,30.23
2018-07-23T01:07:47.580Z,29.67
2018-07-23T01:10:50.669Z,29.43
2018-07-23T01:13:53.753Z,29.23
2018-07-23T01:16:56.824Z,29.63
2018-07-23T01:20:00.348Z,29.63
2018-07-23T01:23:03.436Z,31.20
2018-07-23T01:26:06.953Z,30.90
2018-07-23T01:29:10.044Z,30.23
2018-07-23T01:32:13.232Z,32.67
2018-07-23T01:35:16.310Z,30.90
2018-07-23T01:38:19.407Z,32.17
2018-07-23T01:41:22.574Z,31.40
2018-07-23T01:44:25.650Z,31.43
2018-07-23T01:47:29.561Z,32.03
2018-07-23T01:50:32.654Z,30.73
2018-07-23T01:53:35.718Z,32.57
2018-07-23T01:56:38.804Z,31.03
2018-07-23T01:59:41.686Z,31.60
2018-07-23T02:02:44.769Z,30.47
2018-07-23T02:05:47.832Z,32.53
2018-07-23T02:08:50.902Z,32.83
2018-07-23T02:11:53.993Z,34.63
2018-07-23T02:14:57.089Z,33.90
2018-07-23T02:18:00.154Z,34.40
2018-07-23T02:21:03.297Z,33.40
2018-07-23T02:24:06.589Z,35.43
2018-07-23T02:27:09.674Z,36.93
2018-07-23T02:30:12.757Z,36.20
2018-07-23T02:33:15.847Z,34.47
2018-07-23T02:36:19.062Z,34.77
2018-07-23T02:39:22.146Z,37.70
2018-07-23T02:42:25.229Z,41.97
2018-07-23T02:45:28.317Z,35.87
2018-07-23T02:48:31.413Z,37.83
2018-07-23T02:51:34.510Z,33.57
2018-07-23T02:54:37.602Z,35.27
2018-07-23T02:57:40.697Z,33.77
2018-07-23T03:00:43.778Z,32.03
2018-07-23T03:03:46.955Z,32.70
2018-07-23T03:06:50.063Z,33.30
2018-07-23T03:09:53.137Z,33.90
2018-07-23T03:12:56.237Z,33.63
2018-07-23T03:15:59.321Z,33.97
2018-07-23T03:19:02.423Z,32.93
2018-07-23T03:22:05.535Z,33.60
2018-07-23T03:25:08.598Z,33.10
2018-07-23T03:28:11.701Z,35.67
2018-07-23T03:31:14.790Z,34.13
2018-07-23T03:34:17.881Z,34.83
2018-07-23T03:37:20.942Z,33.27
2018-07-23T03:40:24.045Z,34.47
2018-07-23T03:43:27.114Z,35.07
2018-07-23T03:46:30.020Z,32.10
2018-07-23T03:49:33.080Z,29.13
2018-07-23T03:52:36.173Z,30.37
2018-07-23T03:55:39.260Z,30.67
2018-07-23T03:58:42.325Z,30.53
2018-07-23T04:01:45.426Z,29.50
2018-07-23T04:04:48.513Z,31.00
2018-07-23T04:07:51.605Z,31.67
2018-07-23T04:10:54.781Z,31.33
2018-07-23T04:13:57.817Z,26.53
2018-07-23T04:17:00.693Z,25.03
2018-07-23T04:20:03.993Z,22.87
2018-07-23T04:26:16.593Z,21.67
2018-07-23T04:29:19.660Z,19.50
2018-07-23T04:32:22.769Z,19.60
2018-07-23T04:35:25.976Z,19.93
2018-07-23T04:38:29.054Z,19.73
2018-07-23T04:41:32.148Z,18.20
2018-07-23T04:44:35.218Z,18.27
2018-07-23T04:47:38.305Z,18.30
2018-07-23T04:50:41.495Z,17.40
2018-07-23T04:53:44.505Z,17.37
2018-07-23T04:56:47.632Z,16.30
2018-07-23T04:59:50.773Z,18.00
2018-07-23T05:02:53.885Z,19.17
2018-07-23T05:05:57.058Z,16.33
2018-07-23T05:09:00.137Z,17.10
2018-07-23T05:12:03.024Z,17.70
2018-07-23T05:15:06.166Z,19.70
2018-07-23T05:18:09.359Z,19.33
2018-07-23T05:21:15.486Z,20.30
2018-07-23T05:24:18.578Z,19.87
2018-07-23T05:27:21.734Z,18.33
2018-07-23T05:30:25.005Z,17.00
2018-07-23T05:33:28.097Z,17.33
2018-07-23T05:36:31.293Z,16.33
2018-07-23T05:39:34.385Z,17.63
2018-07-23T05:42:37.492Z,16.30
2018-07-23T05:45:40.570Z,16.33
2018-07-23T05:48:43.644Z,15.63
2018-07-23T05:51:46.746Z,14.93
2018-07-23T05:54:49.796Z,14.43
2018-07-23T05:57:52.872Z,14.07
2018-07-23T06:00:55.732Z,14.07
2018-07-23T06:03:58.825Z,14.17
2018-07-23T06:07:02.143Z,14.97
2018-07-23T06:10:05.185Z,14.60
2018-07-23T06:13:08.352Z,13.33
2018-07-23T06:16:11.369Z,14.27
2018-07-23T06:19:14.465Z,15.23
2018-07-23T06:22:17.556Z,15.33
2018-07-23T06:25:20.654Z,14.97
2018-07-23T06:28:23.745Z,14.17
2018-07-23T06:31:26.838Z,13.33
2018-07-23T06:34:29.933Z,15.10
2018-07-23T06:37:33.243Z,15.50
2018-07-23T06:40:36.289Z,14.60
2018-07-23T06:43:39.364Z,15.73
2018-07-23T06:46:42.517Z,14.73
2018-07-23T06:49:45.544Z,14.67
2018-07-23T06:52:48.637Z,16.20
2018-07-23T06:55:51.701Z,17.17
2018-07-23T06:58:54.822Z,16.43
2018-07-23T07:01:57.897Z,18.10
2018-07-23T07:05:00.968Z,18.90
2018-07-23T07:08:04.059Z,19.30
2018-07-23T07:11:07.122Z,20.13
2018-07-23T07:14:10.198Z,27.57
2018-07-23T07:17:13.272Z,23.17
2018-07-23T07:20:16.336Z,23.70
2018-07-23T07:23:19.425Z,21.40
2018-07-23T07:26:22.265Z,24.30
2018-07-23T07:29:25.336Z,24.37
2018-07-23T07:32:28.401Z,39.30
2018-07-23T07:35:31.504Z,22.63
2018-07-23T07:38:34.629Z,21.27
2018-07-23T07:41:38.030Z,20.27
2018-07-23T07:44:41.136Z,19.03
2018-07-23T07:47:44.222Z,19.03
2018-07-23T07:50:47.296Z,17.27
2018-07-23T07:53:50.470Z,18.67
2018-07-23T07:56:53.564Z,18.13
2018-07-23T07:59:56.633Z,17.62
2018-07-23T08:02:59.697Z,15.40
2018-07-23T08:06:02.778Z,17.00
2018-07-23T08:09:07.821Z,15.98
2018-07-23T08:12:10.887Z,15.15
2018-07-23T08:15:14.006Z,14.63
2018-07-23T08:18:17.074Z,15.10
2018-07-23T08:21:20.157Z,14.60
2018-07-23T08:24:23.261Z,40.58
2018-07-23T08:27:26.357Z,17.80
2018-07-23T08:30:29.437Z,13.95
2018-07-23T08:33:32.544Z,12.90
2018-07-23T08:36:35.608Z,14.58
2018-07-23T08:39:38.709Z,13.60
2018-07-23T08:42:41.761Z,13.58
2018-07-23T08:45:44.841Z,13.58
2018-07-23T08:48:47.725Z,15.05
2018-07-23T08:51:50.608Z,14.63
2018-07-23T08:54:53.698Z,13.43
2018-07-23T08:57:56.632Z,15.90
2018-07-23T09:00:59.734Z,16.40
2018-07-23T09:04:02.786Z,14.15
2018-07-23T09:07:05.893Z,14.78
2018-07-23T09:10:08.976Z,14.43
2018-07-23T09:13:12.045Z,14.70
2018-07-23T09:16:15.125Z,14.80
2018-07-23T09:19:18.190Z,15.30
2018-07-23T09:22:21.259Z,14.78
2018-07-23T09:25:28.569Z,14.10
2018-07-23T09:28:31.661Z,20.75
2018-07-23T09:31:34.738Z,14.27
2018-07-23T09:37:47.361Z,14.73
2018-07-23T09:40:50.686Z,15.50
2018-07-23T09:43:53.756Z,13.93
2018-07-23T09:46:56.861Z,15.10
2018-07-23T09:50:00.033Z,14.50
2018-07-23T09:53:03.101Z,14.23
2018-07-23T09:56:06.653Z,13.60
2018-07-23T09:59:09.717Z,14.67
2018-07-23T10:02:12.795Z,14.00
2018-07-23T10:05:16.041Z,11.73
2018-07-23T10:08:19.119Z,12.67
2018-07-23T10:11:22.187Z,14.83
2018-07-23T10:14:25.270Z,33.07
2018-07-23T10:17:28.116Z,15.20
2018-07-23T10:20:31.185Z,12.13
2018-07-23T10:23:34.241Z,10.63
2018-07-23T10:26:37.311Z,10.33
2018-07-23T10:29:40.387Z,10.00
2018-07-23T10:32:43.433Z,30.83
2018-07-23T10:35:46.572Z,10.07
2018-07-23T10:38:49.425Z,9.20
2018-07-23T10:41:52.494Z,7.87
2018-07-23T10:44:55.725Z,7.17
2018-07-23T10:47:58.785Z,5.90
2018-07-23T10:51:01.890Z,6.20
2018-07-23T10:54:04.892Z,5.57
2018-07-23T10:57:07.974Z,5.87
2018-07-23T11:00:11.049Z,5.83
2018-07-23T11:03:14.106Z,15.60
2018-07-23T11:06:17.161Z,5.50
2018-07-23T11:09:20.216Z,5.60
2018-07-23T11:12:23.284Z,7.17
2018-07-23T11:15:26.341Z,5.67
2018-07-23T11:18:29.413Z,5.20
2018-07-23T11:21:32.509Z,5.50
2018-07-23T11:24:35.585Z,5.97
2018-07-23T11:27:38.616Z,5.30
2018-07-23T11:30:41.493Z,5.60
2018-07-23T11:33:44.653Z,5.80
2018-07-23T11:36:47.709Z,7.33
2018-07-23T11:39:50.777Z,6.60
2018-07-23T11:42:54.103Z,5.33
2018-07-23T11:45:57.189Z,6.23
2018-07-23T11:52:14.362Z,7.40
2018-07-23T11:55:12.990Z,6.10
2018-07-23T11:58:15.843Z,6.43
2018-07-23T12:01:19.089Z,5.83
2018-07-23T12:04:22.198Z,5.63
2018-07-23T12:07:31.261Z,6.37
2018-07-23T12:10:34.317Z,6.37
2018-07-23T12:13:37.388Z,6.17
2018-07-23T12:16:40.481Z,5.87
2018-07-23T12:19:43.440Z,6.40
2018-07-23T12:22:46.499Z,5.47
2018-07-23T12:25:49.576Z,6.27
2018-07-23T12:28:52.654Z,6.47
2018-07-23T12:31:55.745Z,5.67
2018-07-23T12:34:58.855Z,5.47
2018-07-23T12:38:01.933Z,5.43
2018-07-23T12:41:05.155Z,5.27
2018-07-23T12:44:08.525Z,5.87
2018-07-23T12:47:11.773Z,5.50
2018-07-23T12:50:14.775Z,5.33
2018-07-23T12:53:17.833Z,6.20
2018-07-23T12:56:20.889Z,5.40
2018-07-23T12:59:23.949Z,5.40
2018-07-23T13:02:27.026Z,5.30
2018-07-23T13:05:32.438Z,6.50
2018-07-23T13:08:35.544Z,5.70
2018-07-23T13:11:38.632Z,5.60
2018-07-23T13:14:41.668Z,4.90
2018-07-23T13:17:44.729Z,4.57
2018-07-23T13:20:47.805Z,5.20
2018-07-23T13:23:50.844Z,4.90
2018-07-23T13:26:53.705Z,5.63
2018-07-23T13:29:56.746Z,5.63
2018-07-23T13:32:59.817Z,5.50
2018-07-23T13:36:02.873Z,5.10
2018-07-23T13:39:08.513Z,5.40
2018-07-23T13:42:11.593Z,5.57
2018-07-23T13:45:14.685Z,5.53
2018-07-23T13:48:17.996Z,6.40
2018-07-23T13:51:21.048Z,5.30
2018-07-23T13:54:24.173Z,5.03
2018-07-23T13:57:27.442Z,4.93
2018-07-23T14:00:30.833Z,5.63
2018-07-23T14:03:34.038Z,4.87
2018-07-23T14:06:37.319Z,5.07
2018-07-23T14:09:40.502Z,5.50
2018-07-23T14:12:43.725Z,4.70
2018-07-23T14:15:46.920Z,4.80
2018-07-23T14:18:50.173Z,5.57
2018-07-23T14:21:53.142Z,6.20
2018-07-23T14:24:56.408Z,5.80
2018-07-23T14:27:59.754Z,6.57
2018-07-23T14:31:02.801Z,6.50
2018-07-23T14:34:06.187Z,6.43
2018-07-23T14:37:09.396Z,6.47
2018-07-23T14:40:16.789Z,8.57
2018-07-23T14:43:20.314Z,6.10
2018-07-23T14:46:23.505Z,6.23
2018-07-23T14:49:26.685Z,6.20
2018-07-23T14:52:29.929Z,6.53
2018-07-23T14:55:33.106Z,6.40
2018-07-23T14:58:36.258Z,7.23
2018-07-23T15:01:39.389Z,7.40
2018-07-23T15:04:42.310Z,6.33
2018-07-23T15:07:45.521Z,6.87
2018-07-23T15:10:48.714Z,7.90
2018-07-23T15:13:51.944Z,6.30
2018-07-23T15:16:55.126Z,5.87
2018-07-23T15:19:58.339Z,6.33
2018-07-23T15:23:01.327Z,5.70
2018-07-23T15:26:04.502Z,5.83
2018-07-23T15:29:07.851Z,5.60
2018-07-23T15:32:10.967Z,5.67
2018-07-23T15:35:14.110Z,5.57
2018-07-23T15:38:17.297Z,5.17
2018-07-23T15:41:20.457Z,5.03
2018-07-23T15:44:23.754Z,5.10
2018-07-23T15:47:26.845Z,5.47
2018-07-23T15:50:30.094Z,5.23
2018-07-23T15:53:33.396Z,6.20
2018-07-23T15:56:36.677Z,6.00
2018-07-23T15:59:39.894Z,5.57
2018-07-23T16:02:43.069Z,5.50
2018-07-23T16:05:46.322Z,6.10
2018-07-23T16:08:49.549Z,5.37
2018-07-23T16:11:52.477Z,6.57
2018-07-23T16:14:55.662Z,6.43
2018-07-23T16:17:58.878Z,5.60
2018-07-23T16:21:02.073Z,6.67
2018-07-23T16:24:05.209Z,6.60
2018-07-23T16:27:08.101Z,7.87
2018-07-23T16:30:11.214Z,7.10
2018-07-23T16:33:14.266Z,7.27
2018-07-23T16:36:17.312Z,7.33
2018-07-23T16:39:20.392Z,5.87
2018-07-23T16:42:23.458Z,6.37
2018-07-23T16:45:26.546Z,5.53
2018-07-23T16:48:29.431Z,5.77
2018-07-23T16:51:32.598Z,6.90
2018-07-23T16:54:35.619Z,7.43
2018-07-23T16:57:38.454Z,6.47
2018-07-23T17:00:41.536Z,6.50
2018-07-23T17:03:44.592Z,6.50
2018-07-23T17:06:47.674Z,6.53
2018-07-23T17:09:50.627Z,7.53
2018-07-23T17:12:53.793Z,6.90
2018-07-23T17:15:56.868Z,7.20
2018-07-23T17:18:59.965Z,8.73
2018-07-23T17:22:03.061Z,11.10
2018-07-23T17:25:06.316Z,7.97
2018-07-23T17:28:09.187Z,7.03
2018-07-23T17:31:12.337Z,7.47
2018-07-23T17:34:16.261Z,7.43
2018-07-23T17:37:20.342Z,7.20
2018-07-23T17:40:23.848Z,7.50
2018-07-23T17:43:27.366Z,7.67
2018-07-23T17:46:30.800Z,8.93
2018-07-23T17:49:33.987Z,7.60
2018-07-23T17:52:37.063Z,7.40
2018-07-23T17:55:40.125Z,7.63
2018-07-23T17:58:43.200Z,7.70
2018-07-23T18:01:48.341Z,7.60
2018-07-23T18:04:51.436Z,7.10
2018-07-23T18:07:54.492Z,7.00
2018-07-23T18:10:57.583Z,7.80
2018-07-23T18:14:00.645Z,7.13
2018-07-23T18:17:03.720Z,7.47
2018-07-23T18:20:06.806Z,7.07
2018-07-23T18:23:09.880Z,8.60
2018-07-23T18:26:12.960Z,9.60
2018-07-23T18:29:16.030Z,9.20
2018-07-23T18:32:19.123Z,8.90
2018-07-23T18:35:22.253Z,7.43
2018-07-23T18:38:25.334Z,8.93
2018-07-23T18:41:28.357Z,7.43
2018-07-23T18:44:31.413Z,7.50
2018-07-23T18:47:34.298Z,6.73
2018-07-23T18:50:37.153Z,7.30
2018-07-23T18:53:40.216Z,7.57
2018-07-23T18:56:48.129Z,7.87
2018-07-23T18:59:51.194Z,7.70
2018-07-23T19:02:54.220Z,7.20
2018-07-23T19:05:57.284Z,6.80
2018-07-23T19:09:00.341Z,7.57
2018-07-23T19:12:03.200Z,6.50
2018-07-23T19:15:06.690Z,7.30
2018-07-23T19:18:09.991Z,7.07
2018-07-23T19:21:13.178Z,7.17
2018-07-23T19:24:16.299Z,7.60
2018-07-23T19:27:19.528Z,11.17
2018-07-23T19:30:22.754Z,6.90
2018-07-23T19:33:25.974Z,6.83
2018-07-23T19:36:29.385Z,7.00
2018-07-23T19:39:32.543Z,7.60
2018-07-23T19:42:35.753Z,7.50
2018-07-23T19:45:38.957Z,6.80
2018-07-23T19:48:42.174Z,7.53
2018-07-23T19:51:45.117Z,8.13
2018-07-23T19:54:48.353Z,6.73
2018-07-23T19:57:51.345Z,6.83
2018-07-23T20:00:54.521Z,8.47
2018-07-23T20:03:57.690Z,6.80
2018-07-23T20:07:00.950Z,6.60
2018-07-23T20:10:04.726Z,6.70
2018-07-23T20:13:08.191Z,6.33
2018-07-23T20:16:11.422Z,6.23
2018-07-23T20:19:14.571Z,6.70
2018-07-23T20:22:17.777Z,6.93
2018-07-23T20:25:21.002Z,9.97
2018-07-23T20:28:30.425Z,6.87
2018-07-23T20:31:33.622Z,6.00
2018-07-23T20:34:36.895Z,6.47
2018-07-23T20:37:40.141Z,5.60
2018-07-23T20:40:43.058Z,6.00
2018-07-23T20:43:46.245Z,5.97
2018-07-23T20:46:49.433Z,6.20
2018-07-23T20:49:52.781Z,5.80
2018-07-23T20:52:56.074Z,5.37
2018-07-23T20:55:59.321Z,5.90
2018-07-23T20:59:02.590Z,5.77
2018-07-23T21:02:05.594Z,8.17
2018-07-23T21:05:08.758Z,6.20
2018-07-23T21:08:12.050Z,5.40
2018-07-23T21:11:15.256Z,5.40
2018-07-23T21:14:18.457Z,5.47
2018-07-23T21:17:21.430Z,5.40
2018-07-23T21:20:24.693Z,5.73
2018-07-23T21:23:27.865Z,5.80
2018-07-23T21:26:31.092Z,4.90
2018-07-23T21:29:34.385Z,5.33
2018-07-23T21:32:37.569Z,5.20
2018-07-23T21:35:40.774Z,4.97
2018-07-23T21:38:44.066Z,5.30
2018-07-23T21:41:47.297Z,5.50
2018-07-23T21:44:50.337Z,4.90
2018-07-23T21:47:53.625Z,5.50
2018-07-23T21:50:56.814Z,5.60
2018-07-23T21:54:00.078Z,5.30
2018-07-23T21:57:03.238Z,5.27
2018-07-23T22:00:11.542Z,5.13
2018-07-23T22:03:14.858Z,5.47
2018-07-23T22:06:22.690Z,5.23
2018-07-23T22:09:25.703Z,5.63
2018-07-23T22:12:28.977Z,5.40
2018-07-23T22:15:32.058Z,5.37
2018-07-23T22:18:35.342Z,5.57
2018-07-23T22:21:38.591Z,5.30
2018-07-23T22:24:41.919Z,5.70
2018-07-23T22:27:45.042Z,6.07
2018-07-23T22:30:47.931Z,5.73
2018-07-23T22:33:50.885Z,5.43
2018-07-23T22:36:54.027Z,6.07
2018-07-23T22:39:57.269Z,5.67
2018-07-23T22:43:00.410Z,5.37
2018-07-23T22:46:03.678Z,5.57
2018-07-23T22:49:06.958Z,5.13
2018-07-23T22:52:10.118Z,5.30
2018-07-23T22:55:13.398Z,5.43
2018-07-23T22:58:16.710Z,5.90
2018-07-23T23:01:20.294Z,5.77
2018-07-23T23:04:23.508Z,5.70
2018-07-23T23:07:26.757Z,5.87
2018-07-23T23:10:29.909Z,5.63
2018-07-23T23:13:33.129Z,6.17
2018-07-23T23:16:36.330Z,5.60
2018-07-23T23:19:40.170Z,6.03
2018-07-23T23:22:43.291Z,5.50
2018-07-23T23:25:46.494Z,6.13
2018-07-23T23:28:49.669Z,5.47
2018-07-23T23:31:52.881Z,5.70
2018-07-23T23:34:55.983Z,6.17
2018-07-23T23:37:59.069Z,6.10
2018-07-23T23:41:02.131Z,5.83
2018-07-23T23:44:05.236Z,5.57
2018-07-23T23:47:08.298Z,5.77
2018-07-23T23:50:11.152Z,5.70
2018-07-23T23:53:14.205Z,5.80
2018-07-23T23:56:17.310Z,5.80
2018-07-23T23:59:20.373Z,5.60
